sensor_id;sensor_type;location;lat;lon;timestamp;temperature;humidity
21540;DHT22;10931;52.164;5.518;2022-10-29T00:02:06;22.20;74.70
21540;DHT22;10931;52.164;5.518;2022-10-29T00:04:31;22.20;74.70
21540;DHT22;10931;52.164;5.518;2022-10-29T00:07:00;22.20;74.80
21540;DHT22;10931;52.164;5.518;2022-10-29T00:09:25;22.20;74.70
21540;DHT22;10931;52.164;5.518;2022-10-29T00:11:53;22.20;74.70
21540;DHT22;10931;52.164;5.518;2022-10-29T00:14:19;22.20;74.70
21540;DHT22;10931;52.164;5.518;2022-10-29T00:16:44;22.20;74.70
21540;DHT22;10931;52.164;5.518;2022-10-29T00:19:10;22.20;74.70
21540;DHT22;10931;52.164;5.518;2022-10-29T00:21:39;22.20;74.70
21540;DHT22;10931;52.164;5.518;2022-10-29T00:24:05;22.20;74.70
21540;DHT22;10931;52.164;5.518;2022-10-29T00:26:31;22.10;74.60
21540;DHT22;10931;52.164;5.518;2022-10-29T00:28:57;22.20;74.70
21540;DHT22;10931;52.164;5.518;2022-10-29T00:31:24;22.10;74.60
21540;DHT22;10931;52.164;5.518;2022-10-29T00:33:51;22.10;74.60
21540;DHT22;10931;52.164;5.518;2022-10-29T00:36:19;22.10;74.60
21540;DHT22;10931;52.164;5.518;2022-10-29T00:38:48;22.10;74.60
21540;DHT22;10931;52.164;5.518;2022-10-29T00:41:19;22.10;74.60
21540;DHT22;10931;52.164;5.518;2022-10-29T00:46:42;22.10;74.60
21540;DHT22;10931;52.164;5.518;2022-10-29T00:49:09;22.10;74.60
21540;DHT22;10931;52.164;5.518;2022-10-29T00:51:38;22.10;74.50
21540;DHT22;10931;52.164;5.518;2022-10-29T00:54:08;22.00;74.40
21540;DHT22;10931;52.164;5.518;2022-10-29T00:56:40;22.00;74.50
21540;DHT22;10931;52.164;5.518;2022-10-29T00:59:09;22.00;74.40
21540;DHT22;10931;52.164;5.518;2022-10-29T01:01:35;22.00;74.40
21540;DHT22;10931;52.164;5.518;2022-10-29T01:04:05;22.00;74.40
21540;DHT22;10931;52.164;5.518;2022-10-29T01:06:32;22.00;74.40
21540;DHT22;10931;52.164;5.518;2022-10-29T01:09:01;22.00;74.40
21540;DHT22;10931;52.164;5.518;2022-10-29T01:20:31;22.00;74.40
21540;DHT22;10931;52.164;5.518;2022-10-29T01:31:06;21.90;74.40
21540;DHT22;10931;52.164;5.518;2022-10-29T01:39:54;21.90;74.20
21540;DHT22;10931;52.164;5.518;2022-10-29T01:42:35;21.90;74.20
21540;DHT22;10931;52.164;5.518;2022-10-29T01:47:56;21.90;74.20
21540;DHT22;10931;52.164;5.518;2022-10-29T01:50:24;21.80;74.20
21540;DHT22;10931;52.164;5.518;2022-10-29T01:52:51;21.80;74.20
21540;DHT22;10931;52.164;5.518;2022-10-29T01:55:22;21.80;74.20
21540;DHT22;10931;52.164;5.518;2022-10-29T01:57:52;21.80;74.20
21540;DHT22;10931;52.164;5.518;2022-10-29T02:00:21;21.80;74.10
21540;DHT22;10931;52.164;5.518;2022-10-29T02:05:59;21.80;74.20
21540;DHT22;10931;52.164;5.518;2022-10-29T02:14:09;21.70;74.10
21540;DHT22;10931;52.164;5.518;2022-10-29T02:16:39;21.70;74.10
21540;DHT22;10931;52.164;5.518;2022-10-29T02:19:17;21.60;74.10
21540;DHT22;10931;52.164;5.518;2022-10-29T02:21:43;21.60;74.10
21540;DHT22;10931;52.164;5.518;2022-10-29T02:24:11;21.60;74.10
21540;DHT22;10931;52.164;5.518;2022-10-29T02:26:38;21.60;74.10
21540;DHT22;10931;52.164;5.518;2022-10-29T02:29:04;21.60;74.10
21540;DHT22;10931;52.164;5.518;2022-10-29T02:31:32;21.60;74.10
21540;DHT22;10931;52.164;5.518;2022-10-29T02:34:00;21.60;74.10
21540;DHT22;10931;52.164;5.518;2022-10-29T02:36:26;21.60;74.10
21540;DHT22;10931;52.164;5.518;2022-10-29T02:38:51;21.60;74.00
21540;DHT22;10931;52.164;5.518;2022-10-29T02:41:17;21.60;74.00
21540;DHT22;10931;52.164;5.518;2022-10-29T02:43:43;21.60;73.90
21540;DHT22;10931;52.164;5.518;2022-10-29T02:46:10;21.60;73.90
21540;DHT22;10931;52.164;5.518;2022-10-29T02:48:39;21.60;73.90
21540;DHT22;10931;52.164;5.518;2022-10-29T02:51:05;21.60;73.90
21540;DHT22;10931;52.164;5.518;2022-10-29T02:53:30;21.60;73.90
21540;DHT22;10931;52.164;5.518;2022-10-29T02:55:56;21.50;73.90
21540;DHT22;10931;52.164;5.518;2022-10-29T02:58:25;21.60;74.00
21540;DHT22;10931;52.164;5.518;2022-10-29T03:00:51;21.60;74.00
21540;DHT22;10931;52.164;5.518;2022-10-29T03:03:18;21.60;74.00
21540;DHT22;10931;52.164;5.518;2022-10-29T03:05:44;21.50;73.90
21540;DHT22;10931;52.164;5.518;2022-10-29T03:08:09;21.50;73.90
21540;DHT22;10931;52.164;5.518;2022-10-29T03:10:35;21.50;73.90
21540;DHT22;10931;52.164;5.518;2022-10-29T03:13:01;21.50;74.00
21540;DHT22;10931;52.164;5.518;2022-10-29T03:15:30;21.50;73.90
21540;DHT22;10931;52.164;5.518;2022-10-29T03:17:55;21.50;74.00
21540;DHT22;10931;52.164;5.518;2022-10-29T03:20:23;21.50;74.10
21540;DHT22;10931;52.164;5.518;2022-10-29T03:22:51;21.50;74.00
21540;DHT22;10931;52.164;5.518;2022-10-29T03:25:17;21.40;74.00
21540;DHT22;10931;52.164;5.518;2022-10-29T03:27:43;21.40;74.00
21540;DHT22;10931;52.164;5.518;2022-10-29T03:30:14;21.40;74.00
21540;DHT22;10931;52.164;5.518;2022-10-29T03:32:41;21.40;74.00
21540;DHT22;10931;52.164;5.518;2022-10-29T03:35:09;21.40;74.10
21540;DHT22;10931;52.164;5.518;2022-10-29T03:37:35;21.40;74.10
21540;DHT22;10931;52.164;5.518;2022-10-29T03:40:01;21.40;74.10
21540;DHT22;10931;52.164;5.518;2022-10-29T03:42:27;21.40;74.10
21540;DHT22;10931;52.164;5.518;2022-10-29T03:48:34;21.40;74.10
21540;DHT22;10931;52.164;5.518;2022-10-29T03:51:02;21.40;74.10
21540;DHT22;10931;52.164;5.518;2022-10-29T03:53:30;21.30;74.10
21540;DHT22;10931;52.164;5.518;2022-10-29T03:55:57;21.30;74.10
21540;DHT22;10931;52.164;5.518;2022-10-29T03:58:26;21.30;74.10
21540;DHT22;10931;52.164;5.518;2022-10-29T04:01:03;21.30;74.10
21540;DHT22;10931;52.164;5.518;2022-10-29T04:03:30;21.30;74.20
21540;DHT22;10931;52.164;5.518;2022-10-29T04:05:57;21.30;74.10
21540;DHT22;10931;52.164;5.518;2022-10-29T04:08:23;21.40;74.20
21540;DHT22;10931;52.164;5.518;2022-10-29T04:10:50;21.30;74.20
21540;DHT22;10931;52.164;5.518;2022-10-29T04:13:17;21.30;74.20
21540;DHT22;10931;52.164;5.518;2022-10-29T04:15:43;21.30;74.20
21540;DHT22;10931;52.164;5.518;2022-10-29T04:18:09;21.30;74.20
21540;DHT22;10931;52.164;5.518;2022-10-29T04:20:39;21.30;74.20
21540;DHT22;10931;52.164;5.518;2022-10-29T04:23:05;21.30;74.20
21540;DHT22;10931;52.164;5.518;2022-10-29T04:25:38;21.30;74.20
21540;DHT22;10931;52.164;5.518;2022-10-29T04:28:03;21.30;74.20
21540;DHT22;10931;52.164;5.518;2022-10-29T04:30:32;21.20;74.20
21540;DHT22;10931;52.164;5.518;2022-10-29T04:33:05;21.20;74.20
21540;DHT22;10931;52.164;5.518;2022-10-29T04:35:34;21.20;74.20
21540;DHT22;10931;52.164;5.518;2022-10-29T04:38:09;21.20;74.20
21540;DHT22;10931;52.164;5.518;2022-10-29T04:40:35;21.20;74.20
21540;DHT22;10931;52.164;5.518;2022-10-29T04:43:04;21.20;74.20
21540;DHT22;10931;52.164;5.518;2022-10-29T04:45:30;21.30;74.30
21540;DHT22;10931;52.164;5.518;2022-10-29T04:48:03;21.20;74.20
21540;DHT22;10931;52.164;5.518;2022-10-29T04:50:36;21.20;74.30
21540;DHT22;10931;52.164;5.518;2022-10-29T04:53:05;21.20;74.20
21540;DHT22;10931;52.164;5.518;2022-10-29T04:55:43;21.20;74.30
21540;DHT22;10931;52.164;5.518;2022-10-29T04:58:14;21.20;74.30
21540;DHT22;10931;52.164;5.518;2022-10-29T05:00:51;21.20;74.30
21540;DHT22;10931;52.164;5.518;2022-10-29T05:03:17;21.20;74.30
21540;DHT22;10931;52.164;5.518;2022-10-29T05:05:43;21.20;74.20
21540;DHT22;10931;52.164;5.518;2022-10-29T05:08:09;21.10;74.20
21540;DHT22;10931;52.164;5.518;2022-10-29T05:10:39;21.20;74.30
21540;DHT22;10931;52.164;5.518;2022-10-29T05:13:14;21.10;74.20
21540;DHT22;10931;52.164;5.518;2022-10-29T05:15:54;21.20;74.30
21540;DHT22;10931;52.164;5.518;2022-10-29T05:18:20;21.20;74.30
21540;DHT22;10931;52.164;5.518;2022-10-29T05:20:46;21.10;74.20
21540;DHT22;10931;52.164;5.518;2022-10-29T05:23:11;21.10;74.30
21540;DHT22;10931;52.164;5.518;2022-10-29T05:25:40;21.10;74.30
21540;DHT22;10931;52.164;5.518;2022-10-29T05:28:10;21.10;74.30
21540;DHT22;10931;52.164;5.518;2022-10-29T05:30:36;21.10;74.30
21540;DHT22;10931;52.164;5.518;2022-10-29T05:33:11;21.10;74.30
21540;DHT22;10931;52.164;5.518;2022-10-29T05:35:39;21.10;74.30
21540;DHT22;10931;52.164;5.518;2022-10-29T05:38:05;21.10;74.30
21540;DHT22;10931;52.164;5.518;2022-10-29T05:40:31;21.10;74.30
21540;DHT22;10931;52.164;5.518;2022-10-29T05:42:58;21.10;74.40
21540;DHT22;10931;52.164;5.518;2022-10-29T05:45:25;21.00;74.30
21540;DHT22;10931;52.164;5.518;2022-10-29T05:48:01;21.00;74.30
21540;DHT22;10931;52.164;5.518;2022-10-29T05:50:28;21.10;74.40
21540;DHT22;10931;52.164;5.518;2022-10-29T05:53:00;21.00;74.30
21540;DHT22;10931;52.164;5.518;2022-10-29T05:55:27;21.10;74.40
21540;DHT22;10931;52.164;5.518;2022-10-29T05:57:58;21.00;74.40
21540;DHT22;10931;52.164;5.518;2022-10-29T06:00:36;21.00;74.40
21540;DHT22;10931;52.164;5.518;2022-10-29T06:03:14;21.00;74.40
21540;DHT22;10931;52.164;5.518;2022-10-29T06:05:42;21.00;74.40
21540;DHT22;10931;52.164;5.518;2022-10-29T06:08:09;21.00;74.50
21540;DHT22;10931;52.164;5.518;2022-10-29T06:10:35;21.00;74.50
21540;DHT22;10931;52.164;5.518;2022-10-29T06:13:00;21.00;74.50
21540;DHT22;10931;52.164;5.518;2022-10-29T06:15:26;21.00;74.50
21540;DHT22;10931;52.164;5.518;2022-10-29T06:17:52;21.00;74.50
21540;DHT22;10931;52.164;5.518;2022-10-29T06:20:19;21.00;74.50
21540;DHT22;10931;52.164;5.518;2022-10-29T06:22:46;21.00;74.50
21540;DHT22;10931;52.164;5.518;2022-10-29T06:25:12;21.00;74.50
21540;DHT22;10931;52.164;5.518;2022-10-29T06:27:37;21.00;74.50
21540;DHT22;10931;52.164;5.518;2022-10-29T06:30:06;21.00;74.50
21540;DHT22;10931;52.164;5.518;2022-10-29T06:32:32;20.90;74.50
21540;DHT22;10931;52.164;5.518;2022-10-29T06:35:00;20.90;74.50
21540;DHT22;10931;52.164;5.518;2022-10-29T06:37:39;20.90;74.50
21540;DHT22;10931;52.164;5.518;2022-10-29T06:40:18;21.00;74.60
21540;DHT22;10931;52.164;5.518;2022-10-29T06:42:48;21.00;74.60
21540;DHT22;10931;52.164;5.518;2022-10-29T06:45:34;20.90;74.50
21540;DHT22;10931;52.164;5.518;2022-10-29T06:48:20;21.00;74.60
21540;DHT22;10931;52.164;5.518;2022-10-29T06:50:49;21.00;74.60
21540;DHT22;10931;52.164;5.518;2022-10-29T06:53:15;20.90;74.60
21540;DHT22;10931;52.164;5.518;2022-10-29T06:55:43;20.90;74.60
21540;DHT22;10931;52.164;5.518;2022-10-29T06:58:37;20.90;74.60
21540;DHT22;10931;52.164;5.518;2022-10-29T07:01:06;20.90;74.60
21540;DHT22;10931;52.164;5.518;2022-10-29T07:03:42;20.90;74.60
21540;DHT22;10931;52.164;5.518;2022-10-29T07:06:15;20.90;74.60
21540;DHT22;10931;52.164;5.518;2022-10-29T07:09:11;20.90;74.60
21540;DHT22;10931;52.164;5.518;2022-10-29T07:11:59;20.90;74.70
21540;DHT22;10931;52.164;5.518;2022-10-29T07:14:38;20.90;74.70
21540;DHT22;10931;52.164;5.518;2022-10-29T07:17:04;20.90;74.80
21540;DHT22;10931;52.164;5.518;2022-10-29T07:19:37;20.90;74.80
21540;DHT22;10931;52.164;5.518;2022-10-29T07:22:13;20.90;74.80
21540;DHT22;10931;52.164;5.518;2022-10-29T07:24:42;20.90;74.80
21540;DHT22;10931;52.164;5.518;2022-10-29T07:27:08;20.90;74.80
21540;DHT22;10931;52.164;5.518;2022-10-29T07:29:40;20.90;74.90
21540;DHT22;10931;52.164;5.518;2022-10-29T07:32:08;20.90;74.80
21540;DHT22;10931;52.164;5.518;2022-10-29T07:34:37;20.90;74.90
21540;DHT22;10931;52.164;5.518;2022-10-29T07:37:03;20.80;74.80
21540;DHT22;10931;52.164;5.518;2022-10-29T07:39:31;20.80;74.80
21540;DHT22;10931;52.164;5.518;2022-10-29T07:41:57;20.90;75.00
21540;DHT22;10931;52.164;5.518;2022-10-29T07:47:19;20.90;75.00
21540;DHT22;10931;52.164;5.518;2022-10-29T07:49:47;20.80;74.90
21540;DHT22;10931;52.164;5.518;2022-10-29T07:52:15;20.80;75.00
21540;DHT22;10931;52.164;5.518;2022-10-29T07:54:49;20.80;75.00
21540;DHT22;10931;52.164;5.518;2022-10-29T07:57:39;20.90;75.10
21540;DHT22;10931;52.164;5.518;2022-10-29T08:00:05;20.80;75.10
21540;DHT22;10931;52.164;5.518;2022-10-29T08:02:35;20.90;75.10
21540;DHT22;10931;52.164;5.518;2022-10-29T08:05:19;20.90;75.10
21540;DHT22;10931;52.164;5.518;2022-10-29T08:07:45;20.80;75.10
21540;DHT22;10931;52.164;5.518;2022-10-29T08:10:11;20.80;75.10
21540;DHT22;10931;52.164;5.518;2022-10-29T08:12:37;20.80;75.90
21540;DHT22;10931;52.164;5.518;2022-10-29T08:15:03;20.80;75.20
21540;DHT22;10931;52.164;5.518;2022-10-29T08:17:31;20.80;75.20
21540;DHT22;10931;52.164;5.518;2022-10-29T08:19:59;20.80;75.30
21540;DHT22;10931;52.164;5.518;2022-10-29T08:22:29;20.80;75.30
21540;DHT22;10931;52.164;5.518;2022-10-29T08:24:55;20.90;75.40
21540;DHT22;10931;52.164;5.518;2022-10-29T08:27:21;20.80;75.40
21540;DHT22;10931;52.164;5.518;2022-10-29T08:29:49;20.80;75.40
21540;DHT22;10931;52.164;5.518;2022-10-29T08:32:15;20.80;75.40
21540;DHT22;10931;52.164;5.518;2022-10-29T08:34:53;20.90;75.50
21540;DHT22;10931;52.164;5.518;2022-10-29T08:37:21;20.90;75.60
21540;DHT22;10931;52.164;5.518;2022-10-29T08:39:50;20.80;75.60
21540;DHT22;10931;52.164;5.518;2022-10-29T08:42:35;20.90;75.60
21540;DHT22;10931;52.164;5.518;2022-10-29T08:48:22;20.80;75.60
21540;DHT22;10931;52.164;5.518;2022-10-29T08:50:55;20.80;75.70
21540;DHT22;10931;52.164;5.518;2022-10-29T08:56:14;20.90;76.50
21540;DHT22;10931;52.164;5.518;2022-10-29T09:01:23;20.80;75.70
21540;DHT22;10931;52.164;5.518;2022-10-29T09:03:49;20.90;76.30
21540;DHT22;10931;52.164;5.518;2022-10-29T09:06:21;20.80;75.70
21540;DHT22;10931;52.164;5.518;2022-10-29T09:15:08;20.90;76.00
21540;DHT22;10931;52.164;5.518;2022-10-29T09:26:16;20.90;76.50
21540;DHT22;10931;52.164;5.518;2022-10-29T09:36:00;20.90;76.90
21540;DHT22;10931;52.164;5.518;2022-10-29T09:53:09;21.00;77.50
21540;DHT22;10931;52.164;5.518;2022-10-29T09:56:26;21.10;77.60
21540;DHT22;10931;52.164;5.518;2022-10-29T09:59:39;21.10;77.80
21540;DHT22;10931;52.164;5.518;2022-10-29T10:13:12;21.20;78.30
21540;DHT22;10931;52.164;5.518;2022-10-29T10:15:59;21.20;78.40
21540;DHT22;10931;52.164;5.518;2022-10-29T10:19:03;21.20;78.50
21540;DHT22;10931;52.164;5.518;2022-10-29T10:30:13;21.30;78.70
21540;DHT22;10931;52.164;5.518;2022-10-29T10:32:40;21.30;78.60
21540;DHT22;10931;52.164;5.518;2022-10-29T10:35:29;21.30;78.60
21540;DHT22;10931;52.164;5.518;2022-10-29T10:38:06;21.30;78.60
21540;DHT22;10931;52.164;5.518;2022-10-29T10:40:32;21.30;78.50
21540;DHT22;10931;52.164;5.518;2022-10-29T10:42:59;21.40;78.50
21540;DHT22;10931;52.164;5.518;2022-10-29T10:45:34;21.40;78.50
21540;DHT22;10931;52.164;5.518;2022-10-29T10:48:03;21.30;78.40
21540;DHT22;10931;52.164;5.518;2022-10-29T10:50:35;21.40;78.30
21540;DHT22;10931;52.164;5.518;2022-10-29T10:53:14;21.40;78.30
21540;DHT22;10931;52.164;5.518;2022-10-29T10:55:52;21.40;78.30
21540;DHT22;10931;52.164;5.518;2022-10-29T11:01:38;21.40;78.20
21540;DHT22;10931;52.164;5.518;2022-10-29T11:04:19;21.40;78.10
21540;DHT22;10931;52.164;5.518;2022-10-29T11:10:24;21.40;78.00
21540;DHT22;10931;52.164;5.518;2022-10-29T11:12:54;21.40;78.00
21540;DHT22;10931;52.164;5.518;2022-10-29T11:18:58;21.40;77.90
21540;DHT22;10931;52.164;5.518;2022-10-29T11:25:01;21.50;77.90
21540;DHT22;10931;52.164;5.518;2022-10-29T11:52:13;21.60;77.80
21540;DHT22;10931;52.164;5.518;2022-10-29T14:17:08;22.30;82.60
21540;DHT22;10931;52.164;5.518;2022-10-29T14:40:26;22.40;82.40
21540;DHT22;10931;52.164;5.518;2022-10-29T14:43:29;22.40;82.30
21540;DHT22;10931;52.164;5.518;2022-10-29T14:46:39;22.40;82.30
21540;DHT22;10931;52.164;5.518;2022-10-29T14:50:10;22.40;82.20
21540;DHT22;10931;52.164;5.518;2022-10-29T14:52:49;22.40;82.20
21540;DHT22;10931;52.164;5.518;2022-10-29T14:55:22;22.40;82.10
21540;DHT22;10931;52.164;5.518;2022-10-29T14:58:31;22.40;82.10
21540;DHT22;10931;52.164;5.518;2022-10-29T15:01:05;22.40;82.10
21540;DHT22;10931;52.164;5.518;2022-10-29T15:03:59;22.40;82.00
21540;DHT22;10931;52.164;5.518;2022-10-29T15:06:27;22.40;81.90
21540;DHT22;10931;52.164;5.518;2022-10-29T15:08:59;22.40;81.80
21540;DHT22;10931;52.164;5.518;2022-10-29T15:11:39;22.40;81.80
21540;DHT22;10931;52.164;5.518;2022-10-29T15:14:51;22.50;81.80
21540;DHT22;10931;52.164;5.518;2022-10-29T15:41:57;22.50;81.60
21540;DHT22;10931;52.164;5.518;2022-10-29T15:59:07;22.40;81.50
21540;DHT22;10931;52.164;5.518;2022-10-29T16:05:28;22.50;81.60
21540;DHT22;10931;52.164;5.518;2022-10-29T16:07:54;22.50;81.60
21540;DHT22;10931;52.164;5.518;2022-10-29T16:16:59;22.50;81.60
21540;DHT22;10931;52.164;5.518;2022-10-29T16:26:23;22.40;81.40
21540;DHT22;10931;52.164;5.518;2022-10-29T16:28:49;22.40;81.30
21540;DHT22;10931;52.164;5.518;2022-10-29T16:31:30;22.40;81.30
21540;DHT22;10931;52.164;5.518;2022-10-29T16:34:03;22.40;81.30
21540;DHT22;10931;52.164;5.518;2022-10-29T16:36:52;22.40;81.30
21540;DHT22;10931;52.164;5.518;2022-10-29T18:32:56;22.40;80.10
21540;DHT22;10931;52.164;5.518;2022-10-29T18:41:59;22.40;80.00
21540;DHT22;10931;52.164;5.518;2022-10-29T18:48:42;22.40;80.00
21540;DHT22;10931;52.164;5.518;2022-10-29T20:49:58;22.30;79.20
21540;DHT22;10931;52.164;5.518;2022-10-29T21:32:43;22.30;79.10
21540;DHT22;10931;52.164;5.518;2022-10-29T21:39:10;22.30;79.10
21540;DHT22;10931;52.164;5.518;2022-10-29T21:52:01;22.30;78.90
21540;DHT22;10931;52.164;5.518;2022-10-29T21:54:53;22.30;79.00
21540;DHT22;10931;52.164;5.518;2022-10-29T22:00:49;22.20;78.90
21540;DHT22;10931;52.164;5.518;2022-10-29T22:04:00;22.20;78.90
21540;DHT22;10931;52.164;5.518;2022-10-29T22:06:42;22.20;78.90
21540;DHT22;10931;52.164;5.518;2022-10-29T22:09:35;22.20;78.80
21540;DHT22;10931;52.164;5.518;2022-10-29T22:12:07;22.20;78.80
21540;DHT22;10931;52.164;5.518;2022-10-29T22:14:47;22.20;78.80
21540;DHT22;10931;52.164;5.518;2022-10-29T22:17:56;22.20;78.80
21540;DHT22;10931;52.164;5.518;2022-10-29T22:21:20;22.20;78.80
21540;DHT22;10931;52.164;5.518;2022-10-29T22:27:16;22.20;78.80
21540;DHT22;10931;52.164;5.518;2022-10-29T22:33:57;22.20;78.80
21540;DHT22;10931;52.164;5.518;2022-10-29T22:40:45;22.20;78.80
21540;DHT22;10931;52.164;5.518;2022-10-29T22:53:20;22.20;78.80
21540;DHT22;10931;52.164;5.518;2022-10-29T22:56:00;22.20;78.80
21540;DHT22;10931;52.164;5.518;2022-10-29T22:58:47;22.20;78.70
21540;DHT22;10931;52.164;5.518;2022-10-29T23:01:27;22.10;78.60
21540;DHT22;10931;52.164;5.518;2022-10-29T23:04:05;22.10;78.60
21540;DHT22;10931;52.164;5.518;2022-10-29T23:06:54;22.10;78.60
21540;DHT22;10931;52.164;5.518;2022-10-29T23:09:40;22.20;78.70
21540;DHT22;10931;52.164;5.518;2022-10-29T23:12:08;22.20;78.60
21540;DHT22;10931;52.164;5.518;2022-10-29T23:14:45;22.10;78.60
21540;DHT22;10931;52.164;5.518;2022-10-29T23:17:15;22.10;78.60
21540;DHT22;10931;52.164;5.518;2022-10-29T23:19:47;22.10;78.60
21540;DHT22;10931;52.164;5.518;2022-10-29T23:22:14;22.10;78.60
21540;DHT22;10931;52.164;5.518;2022-10-29T23:24:48;22.10;78.60
21540;DHT22;10931;52.164;5.518;2022-10-29T23:27:28;22.10;78.60
21540;DHT22;10931;52.164;5.518;2022-10-29T23:30:02;22.10;78.50
21540;DHT22;10931;52.164;5.518;2022-10-29T23:32:45;22.10;78.50
21540;DHT22;10931;52.164;5.518;2022-10-29T23:35:15;22.10;78.50
21540;DHT22;10931;52.164;5.518;2022-10-29T23:37:41;22.10;78.50
21540;DHT22;10931;52.164;5.518;2022-10-29T23:40:23;22.10;78.60
21540;DHT22;10931;52.164;5.518;2022-10-29T23:42:49;22.10;78.50
21540;DHT22;10931;52.164;5.518;2022-10-29T23:45:22;22.10;78.50
21540;DHT22;10931;52.164;5.518;2022-10-29T23:47:56;22.10;78.50
21540;DHT22;10931;52.164;5.518;2022-10-29T23:50:45;22.10;78.50
21540;DHT22;10931;52.164;5.518;2022-10-29T23:56:47;22.10;78.50
